createdAt,value
2022-12-25T00:01:26.822Z,87.85
2022-12-25T00:03:53.706Z,88.10
2022-12-25T00:06:20.972Z,88.06
2022-12-25T00:08:47.762Z,88.34
2022-12-25T00:11:19.551Z,88.13
2022-12-25T00:13:47.217Z,87.99
2022-12-25T00:16:24.371Z,88.07
2022-12-25T00:18:52.087Z,88.02
2022-12-25T00:21:21.240Z,88.21
2022-12-25T00:23:48.611Z,88.11
2022-12-25T00:26:17.688Z,87.82
2022-12-25T00:28:44.896Z,88.15
2022-12-25T00:31:17.552Z,88.05
2022-12-25T00:33:47.501Z,88.19
2022-12-25T00:36:18.047Z,87.69
2022-12-25T00:38:46.056Z,88.01
2022-12-25T00:41:43.170Z,87.99
2022-12-25T00:44:13.622Z,88.10
2022-12-25T00:46:41.647Z,88.24
2022-12-25T00:49:08.431Z,87.88
2022-12-25T00:51:35.145Z,88.26
2022-12-25T00:54:01.927Z,88.10
2022-12-25T00:56:28.940Z,88.13
2022-12-25T00:58:56.131Z,88.08
2022-12-25T01:01:22.974Z,88.01
2022-12-25T01:03:49.675Z,88.12
2022-12-25T01:06:16.471Z,88.09
2022-12-25T01:09:03.694Z,88.19
2022-12-25T01:11:32.232Z,88.05
2022-12-25T01:13:59.322Z,88.18
2022-12-25T01:16:27.449Z,88.17
2022-12-25T01:18:54.553Z,88.17
2022-12-25T01:21:22.350Z,87.93
2022-12-25T01:23:52.407Z,87.96
2022-12-25T01:26:21.945Z,87.97
2022-12-25T01:28:50.179Z,87.96
2022-12-25T01:31:21.250Z,88.06
2022-12-25T01:33:48.102Z,87.89
2022-12-25T01:36:21.094Z,87.97
2022-12-25T01:38:48.863Z,87.96
2022-12-25T01:41:18.468Z,87.93
2022-12-25T01:44:15.658Z,88.01
2022-12-25T01:46:43.759Z,88.06
2022-12-25T01:49:21.577Z,88.01
2022-12-25T01:51:54.320Z,87.96
2022-12-25T01:54:28.660Z,87.87
2022-12-25T01:56:59.759Z,88.02
2022-12-25T01:59:28.747Z,88.02
2022-12-25T02:01:57.082Z,87.87
2022-12-25T02:04:45.774Z,88.04
2022-12-25T02:07:22.536Z,88.17
2022-12-25T02:09:50.417Z,88.17
2022-12-25T02:12:31.152Z,88.10
2022-12-25T02:15:06.085Z,88.05
2022-12-25T02:17:54.768Z,88.12
2022-12-25T02:20:24.469Z,88.02
2022-12-25T02:23:04.540Z,87.93
2022-12-25T02:26:31.507Z,88.01
2022-12-25T02:29:10.266Z,88.15
2022-12-25T02:31:51.350Z,88.13
2022-12-25T02:34:46.306Z,88.20
2022-12-25T02:37:22.573Z,88.14
2022-12-25T02:40:15.606Z,88.29
2022-12-25T02:43:16.587Z,88.39
2022-12-25T02:46:19.180Z,88.40
2022-12-25T02:49:11.101Z,88.31
2022-12-25T02:52:06.960Z,88.49
2022-12-25T02:55:04.730Z,88.46
2022-12-25T02:58:00.030Z,88.41
2022-12-25T03:00:45.154Z,88.31
2022-12-25T03:03:32.977Z,88.29
2022-12-25T03:06:22.573Z,88.35
2022-12-25T03:09:15.631Z,88.32
2022-12-25T03:11:44.967Z,88.28
2022-12-25T03:14:30.227Z,88.41
2022-12-25T03:16:59.125Z,88.51
2022-12-25T03:19:49.393Z,88.62
2022-12-25T03:22:46.779Z,88.74
2022-12-25T03:25:32.975Z,88.73
2022-12-25T03:28:00.600Z,88.89
2022-12-25T03:31:02.666Z,88.61
2022-12-25T03:34:34.455Z,88.80
2022-12-25T03:37:42.663Z,88.80
2022-12-25T03:41:01.384Z,88.88
2022-12-25T03:44:31.413Z,88.80
2022-12-25T03:47:39.731Z,88.96
2022-12-25T03:50:36.174Z,88.97
2022-12-25T03:53:36.634Z,89.12
2022-12-25T03:56:24.479Z,88.86
2022-12-25T03:59:23.106Z,89.16
2022-12-25T04:02:10.639Z,89.08
2022-12-25T04:04:57.046Z,89.06
2022-12-25T04:07:42.721Z,89.06
2022-12-25T04:10:28.967Z,88.95
2022-12-25T04:13:14.118Z,88.95
2022-12-25T04:15:59.310Z,89.03
2022-12-25T04:18:44.531Z,89.04
2022-12-25T04:21:29.750Z,88.89
2022-12-25T04:24:14.995Z,88.91
2022-12-25T04:27:00.030Z,89.36
2022-12-25T04:29:45.262Z,89.11
2022-12-25T04:32:30.316Z,89.21
2022-12-25T04:35:15.954Z,89.34
2022-12-25T04:37:42.621Z,89.18
2022-12-25T04:40:10.189Z,89.26
2022-12-25T04:42:36.862Z,89.27
2022-12-25T04:45:04.087Z,89.36
2022-12-25T04:47:30.915Z,89.44
2022-12-25T04:49:57.667Z,89.35
2022-12-25T04:52:24.389Z,89.23
2022-12-25T04:54:51.084Z,89.45
2022-12-25T04:57:17.724Z,89.33
2022-12-25T04:59:44.427Z,89.68
2022-12-25T05:02:12.078Z,89.38
2022-12-25T05:04:38.762Z,89.21
2022-12-25T05:07:05.385Z,89.13
2022-12-25T05:09:32.143Z,89.37
2022-12-25T05:11:58.811Z,89.37
2022-12-25T05:14:25.463Z,89.29
2022-12-25T05:16:52.223Z,89.32
2022-12-25T05:19:18.976Z,89.52
2022-12-25T05:21:45.748Z,89.26
2022-12-25T05:24:12.567Z,89.36
2022-12-25T05:26:39.217Z,89.33
2022-12-25T05:29:06.186Z,89.24
2022-12-25T05:31:33.201Z,89.26
2022-12-25T05:34:00.054Z,89.19
2022-12-25T05:36:27.275Z,89.38
2022-12-25T05:38:54.115Z,89.33
2022-12-25T05:41:20.831Z,89.11
2022-12-25T05:43:47.520Z,89.42
2022-12-25T05:46:14.770Z,89.27
2022-12-25T05:48:41.498Z,89.64
2022-12-25T05:51:11.888Z,89.45
2022-12-25T05:53:38.974Z,89.43
2022-12-25T05:56:07.971Z,89.50
2022-12-25T05:58:38.245Z,89.51
2022-12-25T06:01:11.944Z,89.55
2022-12-25T06:03:39.148Z,89.20
2022-12-25T06:06:07.336Z,89.56
2022-12-25T06:08:34.753Z,89.68
2022-12-25T06:11:06.919Z,89.65
2022-12-25T06:13:35.235Z,89.51
2022-12-25T06:16:11.625Z,89.71
2022-12-25T06:18:42.246Z,89.69
2022-12-25T06:21:11.337Z,89.63
2022-12-25T06:23:39.506Z,89.53
2022-12-25T06:26:13.727Z,89.55
2022-12-25T06:28:41.059Z,89.60
2022-12-25T06:31:09.183Z,89.52
2022-12-25T06:33:36.545Z,89.88
2022-12-25T06:36:15.969Z,89.32
2022-12-25T06:38:43.545Z,89.20
2022-12-25T06:41:14.767Z,89.36
2022-12-25T06:43:41.468Z,89.32
2022-12-25T06:46:11.883Z,89.17
2022-12-25T06:48:41.098Z,89.30
2022-12-25T06:51:08.113Z,88.93
2022-12-25T06:53:40.635Z,88.99
2022-12-25T06:56:15.728Z,88.75
2022-12-25T06:58:47.681Z,88.60
2022-12-25T07:01:28.792Z,88.79
2022-12-25T07:04:04.099Z,88.69
2022-12-25T07:06:31.014Z,88.28
2022-12-25T07:08:57.876Z,88.25
2022-12-25T07:11:25.142Z,88.40
2022-12-25T07:13:51.995Z,88.07
2022-12-25T07:16:19.156Z,88.16
2022-12-25T07:18:45.941Z,87.88
2022-12-25T07:21:16.491Z,88.18
2022-12-25T07:23:44.607Z,88.29
2022-12-25T07:26:13.652Z,88.07
2022-12-25T07:28:40.790Z,87.92
2022-12-25T07:31:12.457Z,88.35
2022-12-25T07:33:39.239Z,87.63
2022-12-25T07:36:07.569Z,87.48
2022-12-25T07:38:34.707Z,87.61
2022-12-25T07:41:01.816Z,87.78
2022-12-25T07:43:28.571Z,87.65
2022-12-25T07:46:00.611Z,87.52
2022-12-25T07:48:28.781Z,87.71
2022-12-25T07:51:00.525Z,87.85
2022-12-25T07:53:27.912Z,87.47
2022-12-25T07:56:03.788Z,87.59
2022-12-25T07:58:31.801Z,87.83
2022-12-25T08:01:35.595Z,87.52
2022-12-25T08:04:03.238Z,87.82
2022-12-25T08:06:34.327Z,87.53
2022-12-25T08:09:12.608Z,87.54
2022-12-25T08:11:45.064Z,87.53
2022-12-25T08:14:11.824Z,87.40
2022-12-25T08:16:42.283Z,87.63
2022-12-25T08:19:09.572Z,87.09
2022-12-25T08:21:37.363Z,87.63
2022-12-25T08:24:04.658Z,87.48
2022-12-25T08:26:31.322Z,87.51
2022-12-25T08:28:57.999Z,87.22
2022-12-25T08:31:28.778Z,86.89
2022-12-25T08:33:58.353Z,87.39
2022-12-25T08:36:25.754Z,87.15
2022-12-25T08:39:00.319Z,87.29
2022-12-25T08:41:29.672Z,87.02
2022-12-25T08:43:56.433Z,87.42
2022-12-25T08:46:23.787Z,86.92
2022-12-25T08:48:51.065Z,86.76
2022-12-25T08:51:21.166Z,86.64
2022-12-25T08:53:49.846Z,86.48
2022-12-25T08:56:18.121Z,87.09
2022-12-25T08:58:45.510Z,87.00
2022-12-25T09:01:13.740Z,86.97
2022-12-25T09:03:41.363Z,87.11
2022-12-25T09:06:12.693Z,87.72
2022-12-25T09:08:47.730Z,87.97
2022-12-25T09:11:16.627Z,88.32
2022-12-25T09:13:43.459Z,88.65
2022-12-25T09:16:14.255Z,88.80
2022-12-25T09:18:41.319Z,88.93
2022-12-25T09:21:12.443Z,88.91
2022-12-25T09:23:39.254Z,88.97
2022-12-25T09:26:10.623Z,89.25
2022-12-25T09:28:37.374Z,89.46
2022-12-25T09:31:05.200Z,89.25
2022-12-25T09:33:32.234Z,89.66
2022-12-25T09:36:08.223Z,89.95
2022-12-25T09:38:35.761Z,90.23
2022-12-25T09:41:36.323Z,90.17
2022-12-25T09:44:15.447Z,90.37
2022-12-25T09:46:48.722Z,90.22
2022-12-25T09:49:42.723Z,90.74
2022-12-25T09:52:25.335Z,90.76
2022-12-25T09:55:08.179Z,91.16
2022-12-25T09:57:34.917Z,91.11
2022-12-25T10:00:01.685Z,91.44
2022-12-25T10:02:52.562Z,91.24
2022-12-25T10:05:55.918Z,91.61
2022-12-25T10:08:52.833Z,91.49
2022-12-25T10:11:55.745Z,92.05
2022-12-25T10:15:10.698Z,91.72
2022-12-25T10:18:38.304Z,92.24
2022-12-25T10:21:13.188Z,92.25
2022-12-25T10:24:08.317Z,92.45
2022-12-25T10:26:35.520Z,92.45
2022-12-25T10:29:13.712Z,92.45
2022-12-25T10:31:43.860Z,92.54
2022-12-25T10:34:13.853Z,92.11
2022-12-25T10:36:42.552Z,92.64
2022-12-25T10:39:21.465Z,92.35
2022-12-25T10:42:22.204Z,92.57
2022-12-25T10:45:09.055Z,92.52
2022-12-25T10:47:42.589Z,92.76
2022-12-25T10:50:21.535Z,92.31
2022-12-25T10:53:04.678Z,92.44
2022-12-25T10:55:32.847Z,92.67
2022-12-25T10:58:01.810Z,92.96
2022-12-25T11:00:31.750Z,92.96
2022-12-25T11:02:59.393Z,92.90
2022-12-25T11:05:35.684Z,92.63
2022-12-25T11:08:03.846Z,92.60
2022-12-25T11:10:59.137Z,92.99
2022-12-25T11:13:30.843Z,92.88
2022-12-25T11:16:10.693Z,92.85
2022-12-25T11:18:53.042Z,93.09
2022-12-25T11:21:30.299Z,92.93
2022-12-25T11:24:18.573Z,92.59
2022-12-25T11:27:00.986Z,93.24
2022-12-25T11:29:40.761Z,92.78
2022-12-25T11:32:31.967Z,92.70
2022-12-25T11:35:01.460Z,93.17
2022-12-25T11:37:43.553Z,92.71
2022-12-25T11:40:16.384Z,93.12
2022-12-25T11:42:53.301Z,92.96
2022-12-25T11:45:28.529Z,93.12
2022-12-25T11:48:02.630Z,92.99
2022-12-25T11:50:36.242Z,93.15
2022-12-25T11:53:07.528Z,93.14
2022-12-25T11:55:44.473Z,93.03
2022-12-25T11:58:26.298Z,93.13
2022-12-25T12:00:56.463Z,92.96
2022-12-25T12:03:26.996Z,93.16
2022-12-25T12:06:14.046Z,93.11
2022-12-25T12:08:41.550Z,93.26
2022-12-25T12:11:17.442Z,93.47
2022-12-25T12:14:30.753Z,93.21
2022-12-25T12:16:57.570Z,93.37
2022-12-25T12:19:34.698Z,93.41
2022-12-25T12:22:04.449Z,93.33
2022-12-25T12:25:01.317Z,93.11
2022-12-25T12:27:38.790Z,93.50
2022-12-25T12:30:17.426Z,93.36
2022-12-25T12:32:47.708Z,93.48
2022-12-25T12:35:23.208Z,93.32
2022-12-25T12:37:56.420Z,93.84
2022-12-25T12:40:37.662Z,93.33
2022-12-25T12:43:07.241Z,93.29
2022-12-25T12:45:37.772Z,93.64
2022-12-25T12:48:16.318Z,93.55
2022-12-25T12:50:43.660Z,93.54
2022-12-25T12:53:24.536Z,93.53
2022-12-25T12:55:52.637Z,93.38
2022-12-25T12:58:30.860Z,93.53
2022-12-25T13:01:00.609Z,93.47
2022-12-25T13:04:19.277Z,93.42
2022-12-25T13:07:44.178Z,93.53
2022-12-25T13:10:38.200Z,93.62
2022-12-25T13:13:36.384Z,93.76
2022-12-25T13:16:03.999Z,93.49
2022-12-25T13:18:31.941Z,93.70
2022-12-25T13:21:02.370Z,93.58
2022-12-25T13:23:32.423Z,93.46
2022-12-25T13:26:03.480Z,93.42
2022-12-25T13:28:36.426Z,93.20
2022-12-25T13:31:18.753Z,93.61
2022-12-25T13:33:50.572Z,93.37
2022-12-25T13:36:17.730Z,93.51
2022-12-25T13:38:51.909Z,93.36
2022-12-25T13:41:41.067Z,93.41
2022-12-25T13:44:31.012Z,93.33
2022-12-25T13:47:21.014Z,93.55
2022-12-25T13:49:49.635Z,93.53
2022-12-25T13:52:28.331Z,93.59
2022-12-25T13:55:18.733Z,93.70
2022-12-25T13:58:01.184Z,93.51
2022-12-25T14:00:53.035Z,93.20
2022-12-25T14:03:27.026Z,93.75
2022-12-25T14:06:07.349Z,93.63
2022-12-25T14:08:35.819Z,93.69
2022-12-25T14:11:05.953Z,93.41
2022-12-25T14:13:38.747Z,93.36
2022-12-25T14:16:06.826Z,93.29
2022-12-25T14:18:33.820Z,93.57
2022-12-25T14:21:10.925Z,93.81
2022-12-25T14:23:50.178Z,93.48
2022-12-25T14:26:23.427Z,93.41
2022-12-25T14:28:54.499Z,93.77
2022-12-25T14:31:23.588Z,93.79
2022-12-25T14:33:52.619Z,93.65
2022-12-25T14:36:20.517Z,93.71
2022-12-25T14:39:00.660Z,93.66
2022-12-25T14:41:41.758Z,93.55
2022-12-25T14:44:40.909Z,93.46
2022-12-25T14:47:10.643Z,93.75
2022-12-25T14:49:38.154Z,93.44
2022-12-25T14:52:42.527Z,93.78
2022-12-25T14:55:21.289Z,93.66
2022-12-25T14:58:08.270Z,93.24
2022-12-25T15:00:38.662Z,93.47
2022-12-25T15:03:09.137Z,93.12
2022-12-25T15:05:39.198Z,93.29
2022-12-25T15:08:08.813Z,93.51
2022-12-25T15:13:23.535Z,93.49
2022-12-25T15:15:58.764Z,93.23
2022-12-25T15:18:32.199Z,93.38
2022-12-25T15:20:59.116Z,93.25
2022-12-25T15:23:25.842Z,93.30
2022-12-25T15:25:52.684Z,93.40
2022-12-25T15:28:19.868Z,93.30
2022-12-25T15:30:47.608Z,93.37
2022-12-25T15:33:16.772Z,93.05
2022-12-25T15:35:44.881Z,93.43
2022-12-25T15:38:13.145Z,93.42
2022-12-25T15:40:41.084Z,92.92
2022-12-25T15:43:20.891Z,93.18
2022-12-25T15:45:55.694Z,92.88
2022-12-25T15:48:22.367Z,92.81
2022-12-25T15:50:49.360Z,92.56
2022-12-25T15:53:16.003Z,92.79
2022-12-25T15:55:42.665Z,92.53
2022-12-25T15:58:15.021Z,92.41
2022-12-25T16:00:41.681Z,92.40
2022-12-25T16:03:08.448Z,92.41
2022-12-25T16:05:35.509Z,92.71
2022-12-25T16:08:02.503Z,92.71
2022-12-25T16:10:34.873Z,92.82
2022-12-25T16:13:05.002Z,93.09
2022-12-25T16:15:31.782Z,93.19
2022-12-25T16:17:58.679Z,93.13
2022-12-25T16:20:25.401Z,93.16
2022-12-25T16:22:52.061Z,92.95
2022-12-25T16:25:19.551Z,92.85
2022-12-25T16:27:47.051Z,93.14
2022-12-25T16:30:16.861Z,93.06
2022-12-25T16:32:45.371Z,93.02
2022-12-25T16:35:12.337Z,92.55
2022-12-25T16:37:39.105Z,92.90
2022-12-25T16:40:09.520Z,92.72
2022-12-25T16:42:37.366Z,92.72
2022-12-25T16:45:07.519Z,92.53
2022-12-25T16:47:34.579Z,92.28
2022-12-25T16:50:01.214Z,92.08
2022-12-25T16:52:28.088Z,91.75
2022-12-25T16:54:54.797Z,91.50
2022-12-25T16:57:21.518Z,91.66
2022-12-25T16:59:48.224Z,91.30
2022-12-25T17:02:20.824Z,91.70
2022-12-25T17:04:48.464Z,91.44
2022-12-25T17:07:17.058Z,91.27
2022-12-25T17:09:48.074Z,91.24
2022-12-25T17:12:15.360Z,91.27
2022-12-25T17:14:42.468Z,91.48
2022-12-25T17:17:09.299Z,91.23
2022-12-25T17:19:36.087Z,91.21
2022-12-25T17:22:02.907Z,91.00
2022-12-25T17:24:29.869Z,91.10
2022-12-25T17:26:56.612Z,91.06
2022-12-25T17:29:24.999Z,91.12
2022-12-25T17:31:52.162Z,91.20
2022-12-25T17:34:19.304Z,91.21
2022-12-25T17:36:45.954Z,91.63
2022-12-25T17:39:12.640Z,91.69
2022-12-25T17:41:39.360Z,91.53
2022-12-25T17:44:06.077Z,91.09
2022-12-25T17:46:33.193Z,91.57
2022-12-25T17:49:01.354Z,91.06
2022-12-25T17:51:31.012Z,91.14
2022-12-25T17:54:03.146Z,91.33
2022-12-25T17:56:30.828Z,91.26
2022-12-25T17:59:03.433Z,91.34
2022-12-25T18:01:30.327Z,91.20
2022-12-25T18:03:59.791Z,91.48
2022-12-25T18:06:28.329Z,91.04
2022-12-25T18:08:57.674Z,90.93
2022-12-25T18:11:29.268Z,90.98
2022-12-25T18:13:58.562Z,91.09
2022-12-25T18:16:27.217Z,90.90
2022-12-25T18:18:54.285Z,90.91
2022-12-25T18:21:22.975Z,90.72
2022-12-25T18:23:50.435Z,90.65
2022-12-25T18:26:18.623Z,91.24
2022-12-25T18:28:46.279Z,91.28
2022-12-25T18:31:20.608Z,91.30
2022-12-25T18:33:47.667Z,91.07
2022-12-25T18:36:17.388Z,91.12
2022-12-25T18:38:44.660Z,91.03
2022-12-25T18:41:12.307Z,90.97
2022-12-25T18:43:52.569Z,91.21
2022-12-25T18:46:26.589Z,90.90
2022-12-25T18:48:56.596Z,90.93
2022-12-25T18:51:23.623Z,91.00
2022-12-25T18:53:50.997Z,91.05
2022-12-25T18:56:20.016Z,90.79
2022-12-25T18:58:47.806Z,90.57
2022-12-25T19:01:21.908Z,90.21
2022-12-25T19:03:49.452Z,89.99
2022-12-25T19:06:27.671Z,89.82
2022-12-25T19:08:56.253Z,89.79
2022-12-25T19:11:23.319Z,89.69
2022-12-25T19:13:50.127Z,89.26
2022-12-25T19:16:17.030Z,89.66
2022-12-25T19:18:45.296Z,89.43
2022-12-25T19:21:12.263Z,89.64
2022-12-25T19:23:39.480Z,89.30
2022-12-25T19:26:08.502Z,88.75
2022-12-25T19:28:36.599Z,88.83
2022-12-25T19:31:07.239Z,89.00
2022-12-25T19:33:36.711Z,88.99
2022-12-25T19:36:10.775Z,88.71
2022-12-25T19:38:37.883Z,88.56
2022-12-25T19:41:16.964Z,88.23
2022-12-25T19:43:47.631Z,88.42
2022-12-25T19:46:26.247Z,88.30
2022-12-25T19:48:54.560Z,88.10
2022-12-25T19:51:28.842Z,88.67
2022-12-25T19:53:56.606Z,88.37
2022-12-25T19:56:27.993Z,88.45
2022-12-25T19:58:55.837Z,88.13
2022-12-25T20:01:25.661Z,88.47
2022-12-25T20:03:53.186Z,88.55
2022-12-25T20:06:27.982Z,89.00
2022-12-25T20:09:00.313Z,88.75
2022-12-25T20:11:29.168Z,88.70
2022-12-25T20:13:56.550Z,88.92
2022-12-25T20:16:24.935Z,88.86
2022-12-25T20:18:52.490Z,88.51
2022-12-25T20:21:22.153Z,89.17
2022-12-25T20:23:51.943Z,89.41
2022-12-25T20:26:22.324Z,89.64
2022-12-25T20:28:49.282Z,89.79
2022-12-25T20:31:27.427Z,90.42
2022-12-25T20:33:56.439Z,90.21
2022-12-25T20:36:23.393Z,90.19
2022-12-25T20:38:50.235Z,90.25
2022-12-25T20:41:29.358Z,90.29
2022-12-25T20:43:56.829Z,90.11
2022-12-25T20:46:25.417Z,90.33
2022-12-25T20:48:52.869Z,90.22
2022-12-25T20:51:24.428Z,90.28
2022-12-25T20:53:52.135Z,89.98
2022-12-25T20:56:22.101Z,90.38
2022-12-25T20:58:57.051Z,90.37
2022-12-25T21:01:24.884Z,90.32
2022-12-25T21:03:52.312Z,90.38
2022-12-25T21:06:20.510Z,90.87
2022-12-25T21:08:47.941Z,90.91
2022-12-25T21:11:15.639Z,91.01
2022-12-25T21:13:45.339Z,90.71
2022-12-25T21:16:20.328Z,91.05
2022-12-25T21:18:50.880Z,90.74
2022-12-25T21:21:18.103Z,91.11
2022-12-25T21:23:45.613Z,90.83
2022-12-25T21:26:21.656Z,91.03
2022-12-25T21:28:50.698Z,90.90
2022-12-25T21:31:19.220Z,91.39
2022-12-25T21:33:52.608Z,91.28
2022-12-25T21:36:31.423Z,91.49
2022-12-25T21:39:00.527Z,91.91
2022-12-25T21:41:29.687Z,91.49
2022-12-25T21:43:57.388Z,91.90
2022-12-25T21:46:24.924Z,91.77
2022-12-25T21:48:52.796Z,92.03
2022-12-25T21:51:48.152Z,91.90
2022-12-25T21:54:15.805Z,92.02
2022-12-25T21:56:45.633Z,92.05
2022-12-25T21:59:21.767Z,92.06
2022-12-25T22:01:50.869Z,92.23
2022-12-25T22:04:20.930Z,92.14
2022-12-25T22:07:07.014Z,92.31
2022-12-25T22:09:34.246Z,92.29
2022-12-25T22:12:20.487Z,92.35
2022-12-25T22:14:54.213Z,92.30
2022-12-25T22:17:53.838Z,92.42
2022-12-25T22:20:27.580Z,92.39
2022-12-25T22:22:54.782Z,92.55
2022-12-25T22:25:23.553Z,92.77
2022-12-25T22:27:51.472Z,92.70
2022-12-25T22:30:22.906Z,92.64
2022-12-25T22:32:50.438Z,92.57
2022-12-25T22:35:18.596Z,92.78
2022-12-25T22:37:45.696Z,92.67
2022-12-25T22:40:16.336Z,92.69
2022-12-25T22:42:43.091Z,93.42
2022-12-25T22:45:10.982Z,93.00
2022-12-25T22:47:38.060Z,92.82
2022-12-25T22:50:05.384Z,92.83
2022-12-25T22:52:32.076Z,93.07
2022-12-25T22:54:58.868Z,92.79
2022-12-25T22:57:25.716Z,93.02
2022-12-25T22:59:53.221Z,92.95
2022-12-25T23:02:20.413Z,93.17
2022-12-25T23:04:47.575Z,92.97
2022-12-25T23:07:15.106Z,93.04
2022-12-25T23:09:43.871Z,93.07
2022-12-25T23:12:33.869Z,92.94
2022-12-25T23:15:01.099Z,93.07
2022-12-25T23:17:46.336Z,93.06
2022-12-25T23:20:33.570Z,92.91
2022-12-25T23:23:20.467Z,93.00
2022-12-25T23:26:06.939Z,93.40
2022-12-25T23:28:56.870Z,93.18
2022-12-25T23:31:29.740Z,93.04
2022-12-25T23:33:57.333Z,93.25
2022-12-25T23:36:24.269Z,92.84
2022-12-25T23:38:50.999Z,93.16
2022-12-25T23:41:17.734Z,93.05
2022-12-25T23:43:44.495Z,93.24
2022-12-25T23:46:11.284Z,93.13
2022-12-25T23:48:38.046Z,92.85
2022-12-25T23:51:06.571Z,92.97
2022-12-25T23:53:34.229Z,93.18
2022-12-25T23:56:01.617Z,93.14
2022-12-25T23:58:30.121Z,93.25
